createdAt,value
2019-04-23T00:01:49.817Z,11.85
2019-04-23T00:04:24.117Z,11.84
2019-04-23T00:07:10.713Z,11.76
2019-04-23T00:09:35.509Z,11.75
2019-04-23T00:12:11.985Z,11.75
2019-04-23T00:14:47.129Z,11.71
2019-04-23T00:17:14.992Z,11.69
2019-04-23T00:19:47.260Z,11.65
2019-04-23T00:22:51.908Z,11.63
2019-04-23T00:25:45.574Z,11.59
2019-04-23T00:30:48.130Z,11.56
2019-04-23T00:33:23.920Z,11.57
2019-04-23T00:35:44.032Z,11.47
2019-04-23T00:38:27.939Z,11.45
2019-04-23T00:43:30.627Z,11.39
2019-04-23T00:45:59.391Z,11.39
2019-04-23T00:51:02.337Z,11.32
2019-04-23T00:53:38.636Z,11.31
2019-04-23T00:56:32.457Z,11.27
2019-04-23T01:01:31.948Z,11.22
2019-04-23T01:04:02.570Z,11.19
2019-04-23T01:06:29.061Z,11.14
2019-04-23T01:09:03.831Z,11.07
2019-04-23T01:11:39.314Z,11.04
2019-04-23T01:14:11.349Z,11.04
2019-04-23T01:16:42.488Z,11.02
2019-04-23T01:21:49.615Z,10.95
2019-04-23T01:25:07.243Z,10.92
2019-04-23T01:30:38.746Z,10.87
2019-04-23T01:33:11.006Z,10.78
2019-04-23T01:35:41.316Z,10.77
2019-04-23T01:38:21.547Z,10.77
2019-04-23T01:43:23.212Z,10.71
2019-04-23T01:45:54.537Z,10.69
2019-04-23T01:48:36.315Z,10.65
2019-04-23T01:51:19.027Z,10.57
2019-04-23T01:53:40.495Z,10.62
2019-04-23T01:56:11.133Z,10.61
2019-04-23T01:58:45.105Z,10.58
2019-04-23T02:01:19.178Z,10.57
2019-04-23T02:03:57.999Z,10.54
2019-04-23T02:06:30.005Z,10.45
2019-04-23T02:08:58.847Z,10.44
2019-04-23T02:11:34.172Z,10.42
2019-04-23T02:14:08.909Z,10.42
2019-04-23T02:16:56.282Z,10.39
2019-04-23T02:19:21.855Z,10.34
2019-04-23T02:22:13.263Z,10.33
2019-04-23T02:24:39.606Z,10.23
2019-04-23T02:27:05.254Z,10.20
2019-04-23T02:29:51.439Z,10.22
2019-04-23T02:32:16.776Z,10.16
2019-04-23T02:35:01.633Z,10.14
2019-04-23T02:37:34.720Z,10.12
2019-04-23T02:40:16.014Z,10.08
2019-04-23T02:45:07.526Z,9.99
2019-04-23T02:47:44.295Z,10.00
2019-04-23T02:50:33.598Z,9.97
2019-04-23T02:52:49.644Z,9.91
2019-04-23T02:55:27.174Z,9.88
2019-04-23T02:57:54.293Z,9.85
2019-04-23T03:00:27.666Z,9.86
2019-04-23T03:03:06.347Z,9.81
2019-04-23T03:05:36.096Z,9.76
2019-04-23T03:16:21.825Z,9.74
2019-04-23T03:22:00.128Z,9.68
2019-04-23T03:24:44.127Z,9.65
2019-04-23T03:29:57.940Z,9.62
2019-04-23T03:40:03.773Z,9.51
2019-04-23T03:42:38.719Z,9.51
2019-04-23T03:50:15.469Z,9.41
2019-04-23T03:52:44.386Z,9.37
2019-04-23T03:55:28.132Z,9.38
2019-04-23T03:57:52.640Z,9.38
2019-04-23T04:00:35.235Z,9.36
2019-04-23T04:03:12.251Z,9.40
2019-04-23T04:08:13.943Z,9.36
2019-04-23T04:11:02.504Z,9.36
2019-04-23T04:13:22.438Z,9.34
2019-04-23T04:15:55.344Z,9.39
2019-04-23T04:21:08.669Z,9.35
2019-04-23T04:23:33.054Z,9.33
2019-04-23T04:26:07.092Z,9.34
2019-04-23T04:31:16.351Z,9.33
2019-04-23T04:34:01.157Z,9.36
2019-04-23T04:38:54.495Z,9.42
2019-04-23T04:41:34.499Z,9.48
2019-04-23T04:46:45.129Z,9.45
2019-04-23T04:54:21.154Z,9.57
2019-04-23T04:59:56.275Z,9.62
2019-04-23T05:02:16.195Z,9.66
2019-04-23T05:07:26.030Z,9.72
2019-04-23T05:12:22.933Z,9.74
2019-04-23T05:14:56.940Z,9.79
2019-04-23T05:17:57.268Z,9.83
2019-04-23T05:20:37.345Z,9.83
2019-04-23T05:23:00.165Z,9.88
2019-04-23T05:25:21.999Z,9.94
2019-04-23T05:28:08.278Z,9.97
2019-04-23T05:36:04.982Z,10.08
2019-04-23T05:38:37.161Z,10.13
2019-04-23T05:43:19.233Z,10.28
2019-04-23T05:45:59.300Z,10.32
2019-04-23T05:48:23.519Z,10.32
2019-04-23T05:51:04.546Z,10.42
2019-04-23T05:56:09.086Z,10.49
2019-04-23T05:58:46.858Z,10.58
2019-04-23T06:04:26.049Z,10.74
2019-04-23T06:07:15.279Z,10.79
2019-04-23T06:11:59.745Z,10.92
2019-04-23T06:14:40.285Z,10.96
2019-04-23T06:17:03.706Z,11.01
2019-04-23T06:19:46.029Z,11.06
2019-04-23T06:22:27.408Z,11.10
2019-04-23T06:24:32.983Z,11.17
2019-04-23T06:27:13.589Z,11.24
2019-04-23T06:29:57.716Z,11.29
2019-04-23T06:32:31.420Z,11.33
2019-04-23T06:37:25.790Z,11.49
2019-04-23T06:42:32.518Z,11.68
2019-04-23T06:45:26.412Z,11.76
2019-04-23T06:47:37.583Z,11.81
2019-04-23T06:50:14.789Z,11.90
2019-04-23T06:52:48.524Z,12.01
2019-04-23T06:55:25.421Z,12.06
2019-04-23T06:57:58.602Z,12.17
2019-04-23T07:00:34.214Z,12.24
2019-04-23T07:03:07.611Z,12.35
2019-04-23T07:06:03.685Z,12.49
2019-04-23T07:08:32.498Z,12.61
2019-04-23T07:11:11.100Z,12.68
2019-04-23T07:13:47.168Z,12.73
2019-04-23T07:16:09.628Z,12.85
2019-04-23T07:18:41.125Z,12.93
2019-04-23T07:21:20.202Z,13.01
2019-04-23T07:31:50.058Z,13.36
2019-04-23T07:39:21.968Z,13.63
2019-04-23T07:42:24.722Z,13.71
2019-04-23T07:50:49.424Z,14.03
2019-04-23T07:56:09.520Z,14.34
2019-04-23T07:58:29.011Z,14.42
2019-04-23T08:01:01.020Z,14.46
2019-04-23T08:03:39.320Z,14.63
2019-04-23T08:06:05.857Z,14.80
2019-04-23T08:08:45.501Z,14.86
2019-04-23T08:14:08.544Z,15.08
2019-04-23T08:16:33.622Z,15.34
2019-04-23T08:18:59.031Z,15.47
2019-04-23T08:21:31.820Z,15.47
2019-04-23T08:24:50.557Z,15.61
2019-04-23T08:27:22.426Z,15.72
2019-04-23T08:29:55.462Z,15.76
2019-04-23T08:32:21.326Z,15.93
2019-04-23T08:37:54.319Z,16.07
2019-04-23T08:43:08.972Z,16.29
2019-04-23T08:45:44.475Z,16.22
2019-04-23T08:50:49.771Z,16.59
2019-04-23T08:55:58.331Z,16.70
2019-04-23T08:58:32.044Z,16.85
2019-04-23T09:03:56.373Z,16.79
2019-04-23T09:09:04.368Z,16.72
2019-04-23T09:11:35.160Z,16.68
2019-04-23T09:19:11.118Z,16.91
2019-04-23T09:21:59.242Z,16.98
2019-04-23T09:24:09.578Z,17.15
2019-04-23T09:26:41.470Z,17.27
2019-04-23T09:29:24.989Z,17.41
2019-04-23T09:32:22.290Z,17.57
2019-04-23T09:34:58.667Z,17.61
2019-04-23T09:40:55.614Z,17.82
2019-04-23T09:43:12.095Z,17.99
2019-04-23T09:46:15.060Z,18.11
2019-04-23T09:48:44.217Z,18.18
2019-04-23T09:51:20.975Z,18.39
2019-04-23T09:54:00.618Z,18.47
2019-04-23T09:56:27.239Z,18.60
2019-04-23T09:59:01.147Z,18.68
2019-04-23T10:03:50.537Z,19.06
2019-04-23T10:06:20.290Z,18.82
2019-04-23T10:08:50.052Z,19.05
2019-04-23T10:11:19.957Z,19.22
2019-04-23T10:13:52.774Z,19.48
2019-04-23T10:16:27.710Z,19.64
2019-04-23T10:19:00.675Z,19.54
2019-04-23T10:21:33.394Z,19.61
2019-04-23T10:24:05.548Z,19.60
2019-04-23T10:26:37.917Z,19.70
2019-04-23T10:29:14.185Z,19.73
2019-04-23T10:31:46.154Z,19.91
2019-04-23T10:34:18.970Z,19.93
2019-04-23T10:36:51.517Z,19.88
2019-04-23T10:39:29.509Z,20.26
2019-04-23T10:42:00.862Z,20.43
2019-04-23T10:44:50.814Z,20.68
2019-04-23T10:48:15.524Z,20.89
2019-04-23T10:50:46.208Z,21.24
2019-04-23T10:55:56.339Z,21.44
2019-04-23T10:58:31.469Z,21.48
2019-04-23T11:06:17.752Z,21.51
2019-04-23T11:08:52.840Z,21.49
2019-04-23T11:13:52.842Z,21.26
2019-04-23T11:16:45.815Z,20.90
2019-04-23T11:19:10.791Z,20.84
2019-04-23T11:21:34.138Z,20.35
2019-04-23T11:24:11.371Z,19.99
2019-04-23T11:29:19.267Z,20.25
2019-04-23T11:31:52.298Z,20.88
2019-04-23T11:38:02.677Z,21.41
2019-04-23T11:39:32.762Z,22.21
2019-04-23T11:42:14.505Z,22.74
2019-04-23T11:44:41.511Z,22.94
2019-04-23T11:47:32.597Z,22.74
2019-04-23T11:49:53.307Z,22.86
2019-04-23T11:52:42.784Z,22.69
2019-04-23T12:00:09.991Z,22.51
2019-04-23T12:02:54.317Z,22.90
2019-04-23T12:08:51.078Z,22.40
2019-04-23T12:11:52.921Z,22.57
2019-04-23T12:14:37.152Z,22.65
2019-04-23T12:17:07.906Z,23.00
2019-04-23T12:27:13.761Z,22.90
2019-04-23T12:32:44.696Z,22.79
2019-04-23T12:35:12.932Z,22.35
2019-04-23T12:40:32.431Z,21.86
2019-04-23T12:45:35.547Z,21.56
2019-04-23T12:48:26.248Z,21.49
2019-04-23T12:50:48.829Z,21.45
2019-04-23T13:00:51.549Z,20.84
2019-04-23T13:05:59.193Z,20.73
2019-04-23T13:08:44.271Z,20.52
2019-04-23T13:11:15.229Z,20.29
2019-04-23T13:16:25.478Z,20.07
2019-04-23T13:24:15.712Z,20.06
2019-04-23T13:26:51.867Z,20.25
2019-04-23T13:29:27.970Z,20.45
2019-04-23T13:32:00.839Z,20.51
2019-04-23T13:34:40.979Z,20.75
2019-04-23T13:37:11.193Z,20.99
2019-04-23T13:39:39.839Z,20.99
2019-04-23T13:42:22.860Z,20.93
2019-04-23T13:44:51.878Z,20.85
2019-04-23T13:47:28.177Z,20.69
2019-04-23T13:50:01.381Z,20.63
2019-04-23T13:53:02.664Z,20.63
2019-04-23T13:55:09.094Z,20.57
2019-04-23T13:57:59.332Z,20.56
2019-04-23T14:00:09.545Z,20.58
2019-04-23T14:02:43.900Z,20.63
2019-04-23T14:05:35.605Z,20.59
2019-04-23T14:08:13.264Z,20.76
2019-04-23T14:10:40.137Z,20.98
2019-04-23T14:20:55.488Z,20.97
2019-04-23T14:26:21.997Z,21.13
2019-04-23T14:28:41.772Z,21.23
2019-04-23T14:31:10.537Z,21.45
2019-04-23T14:33:58.471Z,21.56
2019-04-23T14:36:27.780Z,21.63
2019-04-23T14:38:57.434Z,21.79
2019-04-23T14:41:44.448Z,21.81
2019-04-23T14:44:10.388Z,21.55
2019-04-23T14:49:22.074Z,21.34
2019-04-23T14:57:09.923Z,21.44
2019-04-23T14:59:29.031Z,21.84
2019-04-23T15:02:12.519Z,21.87
2019-04-23T15:07:22.924Z,22.30
2019-04-23T15:09:57.638Z,22.02
2019-04-23T15:15:06.227Z,21.67
2019-04-23T15:17:34.666Z,21.56
2019-04-23T15:20:22.974Z,21.58
2019-04-23T15:27:15.902Z,21.68
2019-04-23T15:30:57.527Z,21.40
2019-04-23T15:33:35.044Z,21.08
2019-04-23T15:36:12.910Z,20.93
2019-04-23T15:39:12.305Z,20.70
2019-04-23T15:41:07.431Z,20.59
2019-04-23T15:43:39.295Z,20.52
2019-04-23T15:46:21.569Z,20.60
2019-04-23T15:48:53.989Z,20.67
2019-04-23T15:51:30.939Z,20.40
2019-04-23T15:53:56.404Z,20.26
2019-04-23T15:56:38.474Z,20.22
2019-04-23T15:59:14.081Z,20.10
2019-04-23T16:01:35.118Z,20.06
2019-04-23T16:03:43.439Z,20.03
2019-04-23T16:06:20.987Z,20.00
2019-04-23T16:14:41.150Z,19.66
2019-04-23T16:17:04.888Z,19.58
2019-04-23T16:19:45.916Z,19.64
2019-04-23T16:22:10.776Z,19.61
2019-04-23T16:24:59.856Z,19.46
2019-04-23T16:27:21.571Z,19.32
2019-04-23T16:32:57.770Z,19.30
2019-04-23T16:38:10.290Z,19.18
2019-04-23T16:40:36.283Z,19.14
2019-04-23T16:43:10.149Z,19.04
2019-04-23T16:45:40.985Z,18.97
2019-04-23T16:48:23.864Z,18.96
2019-04-23T16:51:06.705Z,18.94
2019-04-23T16:53:21.525Z,18.84
2019-04-23T16:55:55.056Z,18.72
2019-04-23T16:58:34.614Z,18.57
2019-04-23T17:06:10.100Z,18.27
2019-04-23T17:08:52.139Z,18.21
2019-04-23T17:11:19.092Z,18.16
2019-04-23T17:14:09.183Z,18.16
2019-04-23T17:16:28.620Z,18.14
2019-04-23T17:19:01.871Z,18.15
2019-04-23T17:21:32.517Z,18.10
2019-04-23T17:24:16.860Z,18.07
2019-04-23T17:26:37.368Z,18.08
2019-04-23T17:29:16.127Z,18.12
2019-04-23T17:32:00.570Z,18.13
2019-04-23T17:34:32.557Z,18.10
2019-04-23T17:37:17.869Z,18.08
2019-04-23T17:40:06.741Z,18.11
2019-04-23T17:42:45.528Z,18.10
2019-04-23T17:45:30.875Z,18.05
2019-04-23T17:48:21.981Z,18.07
2019-04-23T17:53:25.359Z,18.02
2019-04-23T17:58:35.412Z,17.99
2019-04-23T18:09:05.966Z,17.81
2019-04-23T18:11:30.020Z,17.73
2019-04-23T18:14:03.829Z,17.64
2019-04-23T18:22:07.399Z,17.56
2019-04-23T18:24:57.897Z,17.47
2019-04-23T18:27:33.442Z,17.48
2019-04-23T18:33:33.813Z,17.47
2019-04-23T18:35:33.022Z,17.46
2019-04-23T18:40:59.244Z,17.38
2019-04-23T18:53:49.388Z,17.25
2019-04-23T19:07:32.218Z,17.19
2019-04-23T19:10:29.205Z,17.21
2019-04-23T19:13:07.318Z,17.26
2019-04-23T19:17:50.168Z,17.19
2019-04-23T19:20:49.749Z,17.24
2019-04-23T19:23:09.518Z,17.23
2019-04-23T19:25:49.870Z,17.23
2019-04-23T19:28:30.755Z,17.23
2019-04-23T19:33:35.314Z,17.19
2019-04-23T19:38:36.424Z,17.22
2019-04-23T19:41:10.827Z,17.23
2019-04-23T19:43:54.399Z,17.23
2019-04-23T19:48:57.887Z,17.23
2019-04-23T19:54:11.017Z,17.23
2019-04-23T19:56:37.719Z,17.19
2019-04-23T19:59:01.925Z,17.25
2019-04-23T20:01:49.810Z,17.19
2019-04-23T20:04:15.070Z,17.18
2019-04-23T20:17:23.284Z,17.09
2019-04-23T20:25:04.172Z,17.04
2019-04-23T20:35:35.600Z,16.98
2019-04-23T20:40:50.847Z,16.97
2019-04-23T20:43:18.963Z,16.96
2019-04-23T20:45:56.642Z,16.98
2019-04-23T20:48:30.848Z,16.94
2019-04-23T20:50:56.242Z,16.95
2019-04-23T20:53:31.347Z,16.91
2019-04-23T20:56:07.386Z,16.94
2019-04-23T20:58:54.921Z,16.95
2019-04-23T21:01:33.839Z,16.96
2019-04-23T21:04:02.151Z,16.94
2019-04-23T21:06:37.456Z,16.94
2019-04-23T21:11:53.111Z,16.86
2019-04-23T21:14:33.580Z,16.81
2019-04-23T21:16:48.695Z,16.78
2019-04-23T21:19:30.740Z,16.74
2019-04-23T21:22:13.940Z,16.71
2019-04-23T21:24:46.248Z,16.70
2019-04-23T21:27:38.536Z,16.69
2019-04-23T21:32:45.303Z,16.58
2019-04-23T21:35:16.838Z,16.51
2019-04-23T21:38:05.012Z,16.47
2019-04-23T21:43:20.734Z,16.43
2019-04-23T21:46:02.483Z,16.42
2019-04-23T21:48:28.640Z,16.33
2019-04-23T21:51:28.620Z,16.22
2019-04-23T21:53:33.397Z,16.22
2019-04-23T21:56:08.507Z,16.22
2019-04-23T22:01:36.959Z,16.17
2019-04-23T22:09:10.333Z,16.20
2019-04-23T22:16:53.919Z,16.13
2019-04-23T22:21:52.570Z,16.19
2019-04-23T22:24:21.216Z,16.18
2019-04-23T22:26:54.913Z,16.18
2019-04-23T22:31:53.786Z,16.15
2019-04-23T22:34:46.915Z,16.17
2019-04-23T22:39:54.169Z,16.10
2019-04-23T22:42:45.154Z,16.14
2019-04-23T22:45:38.091Z,16.13
2019-04-23T22:47:33.668Z,16.07
2019-04-23T22:52:43.691Z,16.04
2019-04-23T22:55:23.402Z,16.07
2019-04-23T22:58:01.883Z,16.09
2019-04-23T23:03:11.586Z,16.04
2019-04-23T23:06:03.111Z,16.03
2019-04-23T23:08:23.992Z,15.98
2019-04-23T23:11:02.558Z,15.98
2019-04-23T23:13:46.550Z,15.97
2019-04-23T23:18:39.067Z,15.93
2019-04-23T23:21:13.414Z,15.89
2019-04-23T23:23:49.776Z,15.91
2019-04-23T23:26:22.062Z,15.89
2019-04-23T23:28:59.435Z,15.79
2019-04-23T23:31:29.935Z,15.77
2019-04-23T23:34:02.362Z,15.72
2019-04-23T23:36:38.771Z,15.76
2019-04-23T23:44:35.129Z,15.77
2019-04-23T23:46:56.291Z,15.77
2019-04-23T23:49:27.811Z,15.75
2019-04-23T23:51:57.709Z,15.64
2019-04-23T23:54:31.106Z,15.64
2019-04-23T23:57:13.897Z,15.65
